sensor_id;sensor_type;location;lat;lon;timestamp;P1;durP1;ratioP1;P2;durP2;ratioP2
14203;SDS011;7185;51.854;6.622;2023-06-10T00:01:55;12.80;;;8.38;;
14203;SDS011;7185;51.854;6.622;2023-06-10T00:04:30;11.00;;;8.50;;
14203;SDS011;7185;51.854;6.622;2023-06-10T00:07:02;10.07;;;7.70;;
14203;SDS011;7185;51.854;6.622;2023-06-10T00:09:35;10.15;;;8.40;;
14203;SDS011;7185;51.854;6.622;2023-06-10T00:12:07;12.63;;;7.97;;
14203;SDS011;7185;51.854;6.622;2023-06-10T00:14:39;9.52;;;8.00;;
14203;SDS011;7185;51.854;6.622;2023-06-10T00:17:11;10.48;;;8.00;;
14203;SDS011;7185;51.854;6.622;2023-06-10T00:19:42;11.13;;;7.75;;
14203;SDS011;7185;51.854;6.622;2023-06-10T00:22:17;12.35;;;8.70;;
14203;SDS011;7185;51.854;6.622;2023-06-10T00:24:50;10.70;;;8.43;;
14203;SDS011;7185;51.854;6.622;2023-06-10T00:27:22;11.15;;;7.72;;
14203;SDS011;7185;51.854;6.622;2023-06-10T00:29:53;11.20;;;8.05;;
14203;SDS011;7185;51.854;6.622;2023-06-10T00:32:25;9.63;;;7.95;;
14203;SDS011;7185;51.854;6.622;2023-06-10T00:34:56;11.48;;;7.80;;
14203;SDS011;7185;51.854;6.622;2023-06-10T00:37:27;11.77;;;7.85;;
14203;SDS011;7185;51.854;6.622;2023-06-10T00:40:01;12.52;;;7.32;;
14203;SDS011;7185;51.854;6.622;2023-06-10T00:42:33;10.63;;;7.43;;
14203;SDS011;7185;51.854;6.622;2023-06-10T00:45:05;8.45;;;7.15;;
14203;SDS011;7185;51.854;6.622;2023-06-10T00:47:37;14.05;;;7.47;;
14203;SDS011;7185;51.854;6.622;2023-06-10T00:50:09;10.20;;;7.53;;
14203;SDS011;7185;51.854;6.622;2023-06-10T00:52:41;10.70;;;7.47;;
14203;SDS011;7185;51.854;6.622;2023-06-10T00:55:16;9.93;;;7.57;;
14203;SDS011;7185;51.854;6.622;2023-06-10T00:57:48;14.10;;;7.38;;
14203;SDS011;7185;51.854;6.622;2023-06-10T01:00:21;9.98;;;8.07;;
14203;SDS011;7185;51.854;6.622;2023-06-10T01:02:53;11.38;;;7.60;;
14203;SDS011;7185;51.854;6.622;2023-06-10T01:05:25;11.15;;;7.20;;
14203;SDS011;7185;51.854;6.622;2023-06-10T01:07:59;10.27;;;7.78;;
14203;SDS011;7185;51.854;6.622;2023-06-10T01:10:35;14.82;;;8.45;;
14203;SDS011;7185;51.854;6.622;2023-06-10T01:13:09;9.10;;;7.10;;
14203;SDS011;7185;51.854;6.622;2023-06-10T01:15:42;9.82;;;7.28;;
14203;SDS011;7185;51.854;6.622;2023-06-10T01:18:14;12.07;;;7.32;;
14203;SDS011;7185;51.854;6.622;2023-06-10T01:20:46;9.70;;;7.30;;
14203;SDS011;7185;51.854;6.622;2023-06-10T01:23:20;11.88;;;7.63;;
14203;SDS011;7185;51.854;6.622;2023-06-10T01:25:53;10.25;;;7.50;;
14203;SDS011;7185;51.854;6.622;2023-06-10T01:28:29;10.60;;;7.82;;
14203;SDS011;7185;51.854;6.622;2023-06-10T01:31:04;11.95;;;7.65;;
14203;SDS011;7185;51.854;6.622;2023-06-10T01:33:41;11.95;;;7.25;;
14203;SDS011;7185;51.854;6.622;2023-06-10T01:36:13;8.43;;;6.88;;
14203;SDS011;7185;51.854;6.622;2023-06-10T01:38:48;10.35;;;7.40;;
14203;SDS011;7185;51.854;6.622;2023-06-10T01:41:21;9.60;;;6.93;;
14203;SDS011;7185;51.854;6.622;2023-06-10T01:43:54;8.43;;;6.78;;
14203;SDS011;7185;51.854;6.622;2023-06-10T01:46:28;9.80;;;7.00;;
14203;SDS011;7185;51.854;6.622;2023-06-10T01:49:14;11.13;;;7.63;;
14203;SDS011;7185;51.854;6.622;2023-06-10T01:51:46;10.20;;;7.32;;
14203;SDS011;7185;51.854;6.622;2023-06-10T01:54:19;10.38;;;7.10;;
14203;SDS011;7185;51.854;6.622;2023-06-10T01:56:51;14.70;;;8.10;;
14203;SDS011;7185;51.854;6.622;2023-06-10T01:59:22;9.77;;;7.00;;
14203;SDS011;7185;51.854;6.622;2023-06-10T02:01:54;11.73;;;7.43;;
14203;SDS011;7185;51.854;6.622;2023-06-10T02:04:26;11.60;;;7.07;;
14203;SDS011;7185;51.854;6.622;2023-06-10T02:06:57;10.10;;;7.25;;
14203;SDS011;7185;51.854;6.622;2023-06-10T02:09:31;12.98;;;7.47;;
14203;SDS011;7185;51.854;6.622;2023-06-10T02:12:05;10.73;;;6.63;;
14203;SDS011;7185;51.854;6.622;2023-06-10T02:14:37;12.15;;;7.53;;
14203;SDS011;7185;51.854;6.622;2023-06-10T02:17:09;12.52;;;7.03;;
14203;SDS011;7185;51.854;6.622;2023-06-10T02:19:44;11.25;;;7.18;;
14203;SDS011;7185;51.854;6.622;2023-06-10T02:22:23;11.40;;;7.03;;
14203;SDS011;7185;51.854;6.622;2023-06-10T02:25:00;9.48;;;6.32;;
14203;SDS011;7185;51.854;6.622;2023-06-10T02:27:35;10.75;;;6.95;;
14203;SDS011;7185;51.854;6.622;2023-06-10T02:30:07;10.88;;;7.07;;
14203;SDS011;7185;51.854;6.622;2023-06-10T02:32:40;12.13;;;7.88;;
14203;SDS011;7185;51.854;6.622;2023-06-10T02:35:12;13.48;;;7.38;;
14203;SDS011;7185;51.854;6.622;2023-06-10T02:37:44;9.30;;;6.70;;
14203;SDS011;7185;51.854;6.622;2023-06-10T02:40:17;10.73;;;7.65;;
14203;SDS011;7185;51.854;6.622;2023-06-10T02:42:49;11.32;;;7.35;;
14203;SDS011;7185;51.854;6.622;2023-06-10T02:45:21;12.40;;;7.45;;
14203;SDS011;7185;51.854;6.622;2023-06-10T02:47:53;12.88;;;7.43;;
14203;SDS011;7185;51.854;6.622;2023-06-10T02:50:30;11.02;;;6.97;;
14203;SDS011;7185;51.854;6.622;2023-06-10T02:53:01;13.65;;;7.18;;
14203;SDS011;7185;51.854;6.622;2023-06-10T02:55:42;10.52;;;7.22;;
14203;SDS011;7185;51.854;6.622;2023-06-10T02:58:21;13.50;;;7.38;;
14203;SDS011;7185;51.854;6.622;2023-06-10T03:00:55;11.93;;;7.57;;
14203;SDS011;7185;51.854;6.622;2023-06-10T03:03:29;12.60;;;7.10;;
14203;SDS011;7185;51.854;6.622;2023-06-10T03:06:12;12.40;;;7.47;;
14203;SDS011;7185;51.854;6.622;2023-06-10T03:08:44;13.77;;;7.30;;
14203;SDS011;7185;51.854;6.622;2023-06-10T03:11:17;12.50;;;7.13;;
14203;SDS011;7185;51.854;6.622;2023-06-10T03:13:49;11.63;;;7.10;;
14203;SDS011;7185;51.854;6.622;2023-06-10T03:16:24;11.80;;;7.53;;
14203;SDS011;7185;51.854;6.622;2023-06-10T03:19:00;11.00;;;7.20;;
14203;SDS011;7185;51.854;6.622;2023-06-10T03:21:32;10.15;;;6.97;;
14203;SDS011;7185;51.854;6.622;2023-06-10T03:24:07;11.00;;;7.45;;
14203;SDS011;7185;51.854;6.622;2023-06-10T03:26:40;14.40;;;7.50;;
14203;SDS011;7185;51.854;6.622;2023-06-10T03:29:11;14.18;;;7.35;;
14203;SDS011;7185;51.854;6.622;2023-06-10T03:31:45;10.40;;;7.15;;
14203;SDS011;7185;51.854;6.622;2023-06-10T03:34:17;13.13;;;6.85;;
14203;SDS011;7185;51.854;6.622;2023-06-10T03:36:48;12.70;;;7.47;;
14203;SDS011;7185;51.854;6.622;2023-06-10T03:39:20;15.10;;;8.02;;
14203;SDS011;7185;51.854;6.622;2023-06-10T03:42:00;10.95;;;6.93;;
14203;SDS011;7185;51.854;6.622;2023-06-10T03:44:32;11.18;;;6.97;;
14203;SDS011;7185;51.854;6.622;2023-06-10T03:47:04;17.35;;;7.32;;
14203;SDS011;7185;51.854;6.622;2023-06-10T03:49:36;9.57;;;6.70;;
14203;SDS011;7185;51.854;6.622;2023-06-10T03:52:07;13.18;;;6.93;;
14203;SDS011;7185;51.854;6.622;2023-06-10T03:54:39;13.13;;;6.93;;
14203;SDS011;7185;51.854;6.622;2023-06-10T03:57:12;13.10;;;7.10;;
14203;SDS011;7185;51.854;6.622;2023-06-10T03:59:43;11.18;;;6.78;;
14203;SDS011;7185;51.854;6.622;2023-06-10T04:02:15;10.57;;;6.72;;
14203;SDS011;7185;51.854;6.622;2023-06-10T04:04:46;12.45;;;6.32;;
14203;SDS011;7185;51.854;6.622;2023-06-10T04:07:18;12.52;;;6.82;;
14203;SDS011;7185;51.854;6.622;2023-06-10T04:09:50;10.00;;;6.00;;
14203;SDS011;7185;51.854;6.622;2023-06-10T04:12:23;11.55;;;6.60;;
14203;SDS011;7185;51.854;6.622;2023-06-10T04:14:54;10.70;;;6.43;;
14203;SDS011;7185;51.854;6.622;2023-06-10T04:17:28;13.98;;;6.85;;
14203;SDS011;7185;51.854;6.622;2023-06-10T04:20:00;10.65;;;6.70;;
14203;SDS011;7185;51.854;6.622;2023-06-10T04:22:33;9.15;;;5.97;;
14203;SDS011;7185;51.854;6.622;2023-06-10T04:25:05;12.55;;;6.93;;
14203;SDS011;7185;51.854;6.622;2023-06-10T04:27:39;13.48;;;6.90;;
14203;SDS011;7185;51.854;6.622;2023-06-10T04:30:11;12.65;;;6.70;;
14203;SDS011;7185;51.854;6.622;2023-06-10T04:32:43;12.18;;;7.28;;
14203;SDS011;7185;51.854;6.622;2023-06-10T04:35:15;14.90;;;6.55;;
14203;SDS011;7185;51.854;6.622;2023-06-10T04:37:46;13.02;;;6.60;;
14203;SDS011;7185;51.854;6.622;2023-06-10T04:40:18;13.85;;;6.78;;
14203;SDS011;7185;51.854;6.622;2023-06-10T04:42:51;12.75;;;7.03;;
14203;SDS011;7185;51.854;6.622;2023-06-10T04:45:22;8.80;;;5.85;;
14203;SDS011;7185;51.854;6.622;2023-06-10T04:47:54;10.98;;;6.53;;
14203;SDS011;7185;51.854;6.622;2023-06-10T04:50:26;11.85;;;6.75;;
14203;SDS011;7185;51.854;6.622;2023-06-10T04:52:58;12.85;;;7.25;;
14203;SDS011;7185;51.854;6.622;2023-06-10T04:55:29;13.38;;;6.53;;
14203;SDS011;7185;51.854;6.622;2023-06-10T04:58:02;10.38;;;5.93;;
14203;SDS011;7185;51.854;6.622;2023-06-10T05:00:34;9.65;;;6.20;;
14203;SDS011;7185;51.854;6.622;2023-06-10T05:03:05;14.23;;;7.00;;
14203;SDS011;7185;51.854;6.622;2023-06-10T05:05:36;12.60;;;6.68;;
14203;SDS011;7185;51.854;6.622;2023-06-10T05:08:08;13.20;;;6.93;;
14203;SDS011;7185;51.854;6.622;2023-06-10T05:10:39;10.70;;;6.25;;
14203;SDS011;7185;51.854;6.622;2023-06-10T05:13:12;9.35;;;6.00;;
14203;SDS011;7185;51.854;6.622;2023-06-10T05:15:44;10.02;;;6.50;;
14203;SDS011;7185;51.854;6.622;2023-06-10T05:18:16;10.32;;;6.22;;
14203;SDS011;7185;51.854;6.622;2023-06-10T05:20:48;11.00;;;6.47;;
14203;SDS011;7185;51.854;6.622;2023-06-10T05:23:19;11.98;;;6.50;;
14203;SDS011;7185;51.854;6.622;2023-06-10T05:25:52;12.52;;;6.13;;
14203;SDS011;7185;51.854;6.622;2023-06-10T05:28:25;10.13;;;6.68;;
14203;SDS011;7185;51.854;6.622;2023-06-10T05:30:57;10.68;;;6.15;;
14203;SDS011;7185;51.854;6.622;2023-06-10T05:33:28;12.07;;;6.63;;
14203;SDS011;7185;51.854;6.622;2023-06-10T05:35:59;12.23;;;6.47;;
14203;SDS011;7185;51.854;6.622;2023-06-10T05:38:31;16.48;;;6.50;;
14203;SDS011;7185;51.854;6.622;2023-06-10T05:41:02;12.05;;;6.15;;
14203;SDS011;7185;51.854;6.622;2023-06-10T05:43:35;10.98;;;5.80;;
14203;SDS011;7185;51.854;6.622;2023-06-10T05:46:07;10.05;;;6.50;;
14203;SDS011;7185;51.854;6.622;2023-06-10T05:48:38;11.05;;;6.32;;
14203;SDS011;7185;51.854;6.622;2023-06-10T05:51:10;14.57;;;6.40;;
14203;SDS011;7185;51.854;6.622;2023-06-10T05:53:41;9.40;;;6.45;;
14203;SDS011;7185;51.854;6.622;2023-06-10T05:56:13;9.43;;;5.78;;
14203;SDS011;7185;51.854;6.622;2023-06-10T05:58:46;9.82;;;6.15;;
14203;SDS011;7185;51.854;6.622;2023-06-10T06:01:17;9.65;;;5.70;;
14203;SDS011;7185;51.854;6.622;2023-06-10T06:03:49;10.32;;;6.55;;
14203;SDS011;7185;51.854;6.622;2023-06-10T06:06:20;9.18;;;6.40;;
14203;SDS011;7185;51.854;6.622;2023-06-10T06:08:51;10.38;;;5.72;;
14203;SDS011;7185;51.854;6.622;2023-06-10T06:11:23;10.32;;;6.18;;
14203;SDS011;7185;51.854;6.622;2023-06-10T06:13:57;10.60;;;5.88;;
14203;SDS011;7185;51.854;6.622;2023-06-10T06:16:28;11.63;;;6.13;;
14203;SDS011;7185;51.854;6.622;2023-06-10T06:19:00;13.50;;;6.53;;
14203;SDS011;7185;51.854;6.622;2023-06-10T06:21:32;12.57;;;5.85;;
14203;SDS011;7185;51.854;6.622;2023-06-10T06:24:03;12.43;;;6.15;;
14203;SDS011;7185;51.854;6.622;2023-06-10T06:26:35;9.38;;;6.05;;
14203;SDS011;7185;51.854;6.622;2023-06-10T06:29:08;9.40;;;5.50;;
14203;SDS011;7185;51.854;6.622;2023-06-10T06:31:39;12.80;;;5.78;;
14203;SDS011;7185;51.854;6.622;2023-06-10T06:34:11;11.25;;;6.10;;
14203;SDS011;7185;51.854;6.622;2023-06-10T06:36:42;7.97;;;5.57;;
14203;SDS011;7185;51.854;6.622;2023-06-10T06:39:14;7.95;;;5.05;;
14203;SDS011;7185;51.854;6.622;2023-06-10T06:41:45;8.57;;;5.72;;
14203;SDS011;7185;51.854;6.622;2023-06-10T06:44:18;11.13;;;5.65;;
14203;SDS011;7185;51.854;6.622;2023-06-10T06:46:50;9.57;;;5.80;;
14203;SDS011;7185;51.854;6.622;2023-06-10T06:49:21;12.43;;;5.28;;
14203;SDS011;7185;51.854;6.622;2023-06-10T06:51:53;12.95;;;5.75;;
14203;SDS011;7185;51.854;6.622;2023-06-10T06:54:24;9.75;;;5.47;;
14203;SDS011;7185;51.854;6.622;2023-06-10T06:56:56;9.85;;;5.68;;
14203;SDS011;7185;51.854;6.622;2023-06-10T06:59:28;8.40;;;5.50;;
14203;SDS011;7185;51.854;6.622;2023-06-10T07:02:00;11.80;;;5.80;;
14203;SDS011;7185;51.854;6.622;2023-06-10T07:04:31;11.48;;;5.43;;
14203;SDS011;7185;51.854;6.622;2023-06-10T07:07:04;10.43;;;5.55;;
14203;SDS011;7185;51.854;6.622;2023-06-10T07:09:37;9.07;;;5.38;;
14203;SDS011;7185;51.854;6.622;2023-06-10T07:12:09;9.45;;;5.10;;
14203;SDS011;7185;51.854;6.622;2023-06-10T07:14:41;11.50;;;4.95;;
14203;SDS011;7185;51.854;6.622;2023-06-10T07:17:13;9.10;;;5.30;;
14203;SDS011;7185;51.854;6.622;2023-06-10T07:19:45;8.45;;;5.07;;
14203;SDS011;7185;51.854;6.622;2023-06-10T07:22:16;11.52;;;5.43;;
14203;SDS011;7185;51.854;6.622;2023-06-10T07:24:48;9.40;;;4.93;;
14203;SDS011;7185;51.854;6.622;2023-06-10T07:27:21;9.75;;;5.65;;
14203;SDS011;7185;51.854;6.622;2023-06-10T07:29:54;10.45;;;5.30;;
14203;SDS011;7185;51.854;6.622;2023-06-10T07:32:25;8.52;;;5.05;;
14203;SDS011;7185;51.854;6.622;2023-06-10T07:34:56;9.05;;;5.50;;
14203;SDS011;7185;51.854;6.622;2023-06-10T07:37:28;11.57;;;5.50;;
14203;SDS011;7185;51.854;6.622;2023-06-10T07:40:00;9.07;;;5.25;;
14203;SDS011;7185;51.854;6.622;2023-06-10T07:42:31;8.95;;;4.93;;
14203;SDS011;7185;51.854;6.622;2023-06-10T07:45:05;8.38;;;5.60;;
14203;SDS011;7185;51.854;6.622;2023-06-10T07:47:36;6.93;;;4.50;;
14203;SDS011;7185;51.854;6.622;2023-06-10T07:50:08;9.38;;;5.00;;
14203;SDS011;7185;51.854;6.622;2023-06-10T07:52:40;9.13;;;5.53;;
14203;SDS011;7185;51.854;6.622;2023-06-10T07:55:11;9.13;;;4.65;;
14203;SDS011;7185;51.854;6.622;2023-06-10T07:57:43;8.93;;;4.72;;
14203;SDS011;7185;51.854;6.622;2023-06-10T08:00:16;10.32;;;5.05;;
14203;SDS011;7185;51.854;6.622;2023-06-10T08:02:48;9.55;;;5.03;;
14203;SDS011;7185;51.854;6.622;2023-06-10T08:05:20;9.52;;;4.95;;
14203;SDS011;7185;51.854;6.622;2023-06-10T08:07:52;6.05;;;4.55;;
14203;SDS011;7185;51.854;6.622;2023-06-10T08:10:23;8.95;;;4.75;;
14203;SDS011;7185;51.854;6.622;2023-06-10T08:12:55;8.35;;;5.13;;
14203;SDS011;7185;51.854;6.622;2023-06-10T08:15:27;9.77;;;4.97;;
14203;SDS011;7185;51.854;6.622;2023-06-10T08:17:59;9.13;;;4.55;;
14203;SDS011;7185;51.854;6.622;2023-06-10T08:20:30;8.68;;;5.20;;
14203;SDS011;7185;51.854;6.622;2023-06-10T08:23:02;9.88;;;5.07;;
14203;SDS011;7185;51.854;6.622;2023-06-10T08:25:34;7.13;;;4.50;;
14203;SDS011;7185;51.854;6.622;2023-06-10T08:28:05;8.27;;;4.50;;
14203;SDS011;7185;51.854;6.622;2023-06-10T08:30:38;8.70;;;4.47;;
14203;SDS011;7185;51.854;6.622;2023-06-10T08:33:09;7.55;;;4.53;;
14203;SDS011;7185;51.854;6.622;2023-06-10T08:35:41;6.80;;;4.38;;
14203;SDS011;7185;51.854;6.622;2023-06-10T08:38:12;12.27;;;4.75;;
14203;SDS011;7185;51.854;6.622;2023-06-10T08:40:44;6.82;;;4.60;;
14203;SDS011;7185;51.854;6.622;2023-06-10T08:43:17;6.88;;;4.50;;
14203;SDS011;7185;51.854;6.622;2023-06-10T08:45:50;7.95;;;4.50;;
14203;SDS011;7185;51.854;6.622;2023-06-10T08:48:23;9.13;;;4.75;;
14203;SDS011;7185;51.854;6.622;2023-06-10T08:50:57;8.85;;;4.60;;
14203;SDS011;7185;51.854;6.622;2023-06-10T08:53:28;6.60;;;4.57;;
14203;SDS011;7185;51.854;6.622;2023-06-10T08:56:01;8.95;;;4.40;;
14203;SDS011;7185;51.854;6.622;2023-06-10T08:58:34;10.07;;;4.80;;
14203;SDS011;7185;51.854;6.622;2023-06-10T09:01:13;9.20;;;4.50;;
14203;SDS011;7185;51.854;6.622;2023-06-10T09:03:47;8.10;;;4.43;;
14203;SDS011;7185;51.854;6.622;2023-06-10T09:06:25;8.98;;;4.72;;
14203;SDS011;7185;51.854;6.622;2023-06-10T09:08:57;10.43;;;5.00;;
14203;SDS011;7185;51.854;6.622;2023-06-10T09:11:28;11.15;;;4.85;;
14203;SDS011;7185;51.854;6.622;2023-06-10T09:14:00;10.52;;;4.95;;
14203;SDS011;7185;51.854;6.622;2023-06-10T09:16:34;6.47;;;3.95;;
14203;SDS011;7185;51.854;6.622;2023-06-10T09:19:06;5.93;;;4.07;;
14203;SDS011;7185;51.854;6.622;2023-06-10T09:21:38;7.57;;;4.50;;
14203;SDS011;7185;51.854;6.622;2023-06-10T09:24:10;7.53;;;4.28;;
14203;SDS011;7185;51.854;6.622;2023-06-10T09:26:44;8.43;;;4.78;;
14203;SDS011;7185;51.854;6.622;2023-06-10T09:29:16;9.02;;;4.80;;
14203;SDS011;7185;51.854;6.622;2023-06-10T09:31:49;8.90;;;3.92;;
14203;SDS011;7185;51.854;6.622;2023-06-10T09:34:24;7.93;;;4.57;;
14203;SDS011;7185;51.854;6.622;2023-06-10T09:36:55;7.47;;;4.47;;
14203;SDS011;7185;51.854;6.622;2023-06-10T09:39:27;6.60;;;4.25;;
14203;SDS011;7185;51.854;6.622;2023-06-10T09:41:58;7.40;;;4.32;;
14203;SDS011;7185;51.854;6.622;2023-06-10T09:44:30;9.48;;;4.32;;
14203;SDS011;7185;51.854;6.622;2023-06-10T09:47:03;6.45;;;4.30;;
14203;SDS011;7185;51.854;6.622;2023-06-10T09:49:34;9.02;;;4.60;;
14203;SDS011;7185;51.854;6.622;2023-06-10T09:52:08;6.70;;;3.70;;
14203;SDS011;7185;51.854;6.622;2023-06-10T09:54:40;8.40;;;4.32;;
14203;SDS011;7185;51.854;6.622;2023-06-10T09:57:15;8.05;;;4.30;;
14203;SDS011;7185;51.854;6.622;2023-06-10T09:59:47;9.55;;;3.97;;
14203;SDS011;7185;51.854;6.622;2023-06-10T10:02:20;8.57;;;4.20;;
14203;SDS011;7185;51.854;6.622;2023-06-10T10:04:52;7.65;;;4.43;;
14203;SDS011;7185;51.854;6.622;2023-06-10T10:07:23;6.65;;;4.45;;
14203;SDS011;7185;51.854;6.622;2023-06-10T10:09:55;6.47;;;4.18;;
14203;SDS011;7185;51.854;6.622;2023-06-10T10:12:26;6.97;;;4.38;;
14203;SDS011;7185;51.854;6.622;2023-06-10T10:14:58;7.05;;;4.05;;
14203;SDS011;7185;51.854;6.622;2023-06-10T10:17:31;6.95;;;4.13;;
14203;SDS011;7185;51.854;6.622;2023-06-10T10:20:04;7.88;;;3.85;;
14203;SDS011;7185;51.854;6.622;2023-06-10T10:22:37;6.68;;;4.05;;
14203;SDS011;7185;51.854;6.622;2023-06-10T10:25:10;5.50;;;3.97;;
14203;SDS011;7185;51.854;6.622;2023-06-10T10:27:43;6.25;;;4.38;;
14203;SDS011;7185;51.854;6.622;2023-06-10T10:30:15;8.02;;;4.15;;
14203;SDS011;7185;51.854;6.622;2023-06-10T10:32:52;5.53;;;3.80;;
14203;SDS011;7185;51.854;6.622;2023-06-10T10:35:26;7.63;;;4.47;;
14203;SDS011;7185;51.854;6.622;2023-06-10T10:37:58;6.15;;;4.25;;
14203;SDS011;7185;51.854;6.622;2023-06-10T10:40:29;8.32;;;4.68;;
14203;SDS011;7185;51.854;6.622;2023-06-10T10:43:02;7.50;;;4.00;;
14203;SDS011;7185;51.854;6.622;2023-06-10T10:45:34;7.32;;;3.92;;
14203;SDS011;7185;51.854;6.622;2023-06-10T10:48:08;6.38;;;4.22;;
14203;SDS011;7185;51.854;6.622;2023-06-10T10:50:41;8.57;;;4.18;;
14203;SDS011;7185;51.854;6.622;2023-06-10T10:53:13;6.95;;;4.32;;
14203;SDS011;7185;51.854;6.622;2023-06-10T10:55:57;7.03;;;3.95;;
14203;SDS011;7185;51.854;6.622;2023-06-10T10:58:29;5.63;;;4.00;;
14203;SDS011;7185;51.854;6.622;2023-06-10T11:01:09;7.90;;;4.40;;
14203;SDS011;7185;51.854;6.622;2023-06-10T11:03:43;9.95;;;4.22;;
14203;SDS011;7185;51.854;6.622;2023-06-10T11:06:18;7.05;;;3.92;;
14203;SDS011;7185;51.854;6.622;2023-06-10T11:08:50;6.88;;;4.50;;
14203;SDS011;7185;51.854;6.622;2023-06-10T11:11:29;4.90;;;3.50;;
14203;SDS011;7185;51.854;6.622;2023-06-10T11:14:06;8.07;;;3.88;;
14203;SDS011;7185;51.854;6.622;2023-06-10T11:16:39;6.88;;;4.00;;
14203;SDS011;7185;51.854;6.622;2023-06-10T11:19:22;8.75;;;4.25;;
14203;SDS011;7185;51.854;6.622;2023-06-10T11:22:02;6.53;;;4.22;;
14203;SDS011;7185;51.854;6.622;2023-06-10T11:24:35;6.57;;;4.57;;
14203;SDS011;7185;51.854;6.622;2023-06-10T11:27:16;10.45;;;4.40;;
14203;SDS011;7185;51.854;6.622;2023-06-10T11:29:54;7.13;;;4.07;;
14203;SDS011;7185;51.854;6.622;2023-06-10T11:32:28;10.00;;;4.57;;
14203;SDS011;7185;51.854;6.622;2023-06-10T11:35:06;5.82;;;4.30;;
14203;SDS011;7185;51.854;6.622;2023-06-10T11:37:42;6.05;;;4.30;;
14203;SDS011;7185;51.854;6.622;2023-06-10T11:40:14;7.40;;;4.63;;
14203;SDS011;7185;51.854;6.622;2023-06-10T11:42:45;6.28;;;4.32;;
14203;SDS011;7185;51.854;6.622;2023-06-10T11:45:17;6.25;;;4.50;;
14203;SDS011;7185;51.854;6.622;2023-06-10T11:47:57;4.78;;;4.03;;
14203;SDS011;7185;51.854;6.622;2023-06-10T11:50:31;5.13;;;3.60;;
14203;SDS011;7185;51.854;6.622;2023-06-10T11:53:03;6.15;;;4.13;;
14203;SDS011;7185;51.854;6.622;2023-06-10T11:55:41;5.85;;;3.90;;
14203;SDS011;7185;51.854;6.622;2023-06-10T11:58:13;6.18;;;4.10;;
14203;SDS011;7185;51.854;6.622;2023-06-10T12:00:46;7.05;;;4.72;;
14203;SDS011;7185;51.854;6.622;2023-06-10T12:03:17;8.27;;;4.85;;
14203;SDS011;7185;51.854;6.622;2023-06-10T12:05:59;6.95;;;4.40;;
14203;SDS011;7185;51.854;6.622;2023-06-10T12:08:31;7.43;;;4.80;;
14203;SDS011;7185;51.854;6.622;2023-06-10T12:11:03;6.82;;;4.28;;
14203;SDS011;7185;51.854;6.622;2023-06-10T12:13:35;7.28;;;4.40;;
14203;SDS011;7185;51.854;6.622;2023-06-10T12:16:06;5.85;;;4.30;;
14203;SDS011;7185;51.854;6.622;2023-06-10T12:18:38;8.95;;;4.60;;
14203;SDS011;7185;51.854;6.622;2023-06-10T12:21:18;7.90;;;4.88;;
14203;SDS011;7185;51.854;6.622;2023-06-10T12:24:00;6.70;;;4.57;;
14203;SDS011;7185;51.854;6.622;2023-06-10T12:26:35;7.00;;;5.00;;
14203;SDS011;7185;51.854;6.622;2023-06-10T12:29:20;6.57;;;4.55;;
14203;SDS011;7185;51.854;6.622;2023-06-10T12:31:54;6.53;;;4.28;;
14203;SDS011;7185;51.854;6.622;2023-06-10T12:34:35;6.38;;;4.47;;
14203;SDS011;7185;51.854;6.622;2023-06-10T12:37:11;7.47;;;5.10;;
14203;SDS011;7185;51.854;6.622;2023-06-10T12:39:43;7.03;;;4.43;;
14203;SDS011;7185;51.854;6.622;2023-06-10T12:42:22;7.50;;;4.97;;
14203;SDS011;7185;51.854;6.622;2023-06-10T12:44:54;6.78;;;4.38;;
14203;SDS011;7185;51.854;6.622;2023-06-10T12:47:30;5.78;;;4.57;;
14203;SDS011;7185;51.854;6.622;2023-06-10T12:50:03;7.93;;;4.50;;
14203;SDS011;7185;51.854;6.622;2023-06-10T12:52:35;6.88;;;5.07;;
14203;SDS011;7185;51.854;6.622;2023-06-10T12:55:07;6.30;;;4.65;;
14203;SDS011;7185;51.854;6.622;2023-06-10T12:57:47;7.50;;;4.97;;
14203;SDS011;7185;51.854;6.622;2023-06-10T13:00:19;6.35;;;4.60;;
14203;SDS011;7185;51.854;6.622;2023-06-10T13:02:50;5.75;;;5.10;;
14203;SDS011;7185;51.854;6.622;2023-06-10T13:05:22;10.60;;;5.03;;
14203;SDS011;7185;51.854;6.622;2023-06-10T13:07:55;6.60;;;4.88;;
14203;SDS011;7185;51.854;6.622;2023-06-10T13:10:26;6.40;;;5.18;;
14203;SDS011;7185;51.854;6.622;2023-06-10T13:12:58;8.70;;;5.20;;
14203;SDS011;7185;51.854;6.622;2023-06-10T13:15:30;9.85;;;4.80;;
14203;SDS011;7185;51.854;6.622;2023-06-10T13:18:02;6.53;;;4.95;;
14203;SDS011;7185;51.854;6.622;2023-06-10T13:20:34;6.93;;;5.03;;
14203;SDS011;7185;51.854;6.622;2023-06-10T13:23:07;9.52;;;5.07;;
14203;SDS011;7185;51.854;6.622;2023-06-10T13:25:38;9.30;;;5.25;;
14203;SDS011;7185;51.854;6.622;2023-06-10T13:28:10;6.55;;;4.65;;
14203;SDS011;7185;51.854;6.622;2023-06-10T13:30:42;7.88;;;5.28;;
14203;SDS011;7185;51.854;6.622;2023-06-10T13:33:13;7.65;;;5.40;;
14203;SDS011;7185;51.854;6.622;2023-06-10T13:35:45;7.22;;;5.03;;
14203;SDS011;7185;51.854;6.622;2023-06-10T13:38:18;8.70;;;4.78;;
14203;SDS011;7185;51.854;6.622;2023-06-10T13:40:49;9.05;;;4.85;;
14203;SDS011;7185;51.854;6.622;2023-06-10T13:43:21;9.85;;;5.22;;
14203;SDS011;7185;51.854;6.622;2023-06-10T13:45:52;7.13;;;5.00;;
14203;SDS011;7185;51.854;6.622;2023-06-10T13:48:24;6.55;;;5.07;;
14203;SDS011;7185;51.854;6.622;2023-06-10T13:50:55;8.30;;;4.90;;
14203;SDS011;7185;51.854;6.622;2023-06-10T13:53:28;8.27;;;5.25;;
14203;SDS011;7185;51.854;6.622;2023-06-10T13:56:00;11.75;;;5.10;;
14203;SDS011;7185;51.854;6.622;2023-06-10T13:58:31;8.55;;;5.15;;
14203;SDS011;7185;51.854;6.622;2023-06-10T14:01:03;7.75;;;5.20;;
14203;SDS011;7185;51.854;6.622;2023-06-10T14:03:35;9.75;;;5.32;;
14203;SDS011;7185;51.854;6.622;2023-06-10T14:06:06;7.82;;;5.32;;
14203;SDS011;7185;51.854;6.622;2023-06-10T14:08:39;6.70;;;5.00;;
14203;SDS011;7185;51.854;6.622;2023-06-10T14:11:11;7.18;;;5.18;;
14203;SDS011;7185;51.854;6.622;2023-06-10T14:13:42;7.95;;;4.70;;
14203;SDS011;7185;51.854;6.622;2023-06-10T14:16:14;7.57;;;5.22;;
14203;SDS011;7185;51.854;6.622;2023-06-10T14:18:45;8.52;;;5.22;;
14203;SDS011;7185;51.854;6.622;2023-06-10T14:21:16;12.02;;;5.40;;
14203;SDS011;7185;51.854;6.622;2023-06-10T14:23:49;8.30;;;5.22;;
14203;SDS011;7185;51.854;6.622;2023-06-10T14:26:22;8.85;;;5.05;;
14203;SDS011;7185;51.854;6.622;2023-06-10T14:28:54;7.13;;;5.28;;
14203;SDS011;7185;51.854;6.622;2023-06-10T14:31:26;7.28;;;5.28;;
14203;SDS011;7185;51.854;6.622;2023-06-10T14:33:57;8.32;;;5.00;;
14203;SDS011;7185;51.854;6.622;2023-06-10T14:36:29;7.78;;;4.75;;
14203;SDS011;7185;51.854;6.622;2023-06-10T14:39:01;9.65;;;4.95;;
14203;SDS011;7185;51.854;6.622;2023-06-10T14:41:33;9.80;;;5.38;;
14203;SDS011;7185;51.854;6.622;2023-06-10T14:44:04;6.80;;;5.20;;
14203;SDS011;7185;51.854;6.622;2023-06-10T14:46:43;9.18;;;5.22;;
14203;SDS011;7185;51.854;6.622;2023-06-10T14:49:24;10.25;;;5.57;;
14203;SDS011;7185;51.854;6.622;2023-06-10T14:52:07;6.07;;;4.72;;
14203;SDS011;7185;51.854;6.622;2023-06-10T14:55:03;9.52;;;4.82;;
14203;SDS011;7185;51.854;6.622;2023-06-10T14:57:44;8.18;;;4.85;;
14203;SDS011;7185;51.854;6.622;2023-06-10T15:00:35;7.53;;;5.47;;
14203;SDS011;7185;51.854;6.622;2023-06-10T15:03:28;10.38;;;5.10;;
14203;SDS011;7185;51.854;6.622;2023-06-10T15:06:16;7.05;;;5.10;;
14203;SDS011;7185;51.854;6.622;2023-06-10T15:09:02;7.60;;;4.90;;
14203;SDS011;7185;51.854;6.622;2023-06-10T15:11:35;6.38;;;5.30;;
14203;SDS011;7185;51.854;6.622;2023-06-10T15:14:24;7.82;;;5.95;;
14203;SDS011;7185;51.854;6.622;2023-06-10T15:17:04;7.38;;;5.53;;
14203;SDS011;7185;51.854;6.622;2023-06-10T15:19:39;8.70;;;5.38;;
14203;SDS011;7185;51.854;6.622;2023-06-10T15:22:35;6.43;;;5.00;;
14203;SDS011;7185;51.854;6.622;2023-06-10T15:25:23;9.40;;;5.28;;
14203;SDS011;7185;51.854;6.622;2023-06-10T15:28:00;7.85;;;5.07;;
14203;SDS011;7185;51.854;6.622;2023-06-10T15:30:32;7.80;;;5.25;;
14203;SDS011;7185;51.854;6.622;2023-06-10T15:33:13;9.88;;;5.43;;